Roselawn, Indiana
Current Conditions -  °F | °C
As of 4:15 AM on Thursday 23 Oct 2014 (Local Time) from KRZL Reporting Station
Haze Haze  
Wind Chill: 36°   Ceiling: Unl
Heat Index: 36°   Visibility: 2.5mi
Dew Point: 36°   Wind: 3mph
Humidity: 100%   Direction: 110°ESE
Pressure: 30.25"   Gusts: NA
Location:  41.14°N, 87.31°W
Report Text: KRZL 230915Z AUTO 11003KT 2 1/2SM BR CLR 02/02 A3025 RMK AO2
Loading
Personal Weather Stations






























Interactive Weather Map
Tropical Storm Tracking
New forecast layout! Learn more

10-Day Weather Forecast

Advertisements
Track Severe Weather on mobile